Time;durP1;ratioP1;P1;durP2;ratioP2;P2;SDS_P1;SDS_P2;PMS_P1;PMS_P2;Temp;Humidity;BMP_temperature;BMP_pressure;BME280_temperature;BME280_humidity;BME280_pressure;Samples;Min_cycle;Max_cycle;Signal;HPM_P1;HPM_P2
2022/03/27 00:00:19;;;;;;;0.30;0.30;;;5.50;99.90;;;;;;4988312;28;20195;-88
2022/03/27 00:02:44;;;;;;;0.30;0.30;;;5.60;99.90;;;;;;4992333;28;20181;-88
2022/03/27 00:05:11;;;;;;;0.30;0.30;;;5.60;99.90;;;;;;4990322;28;20236;-88
2022/03/27 00:07:37;;;;;;;0.30;0.30;;;5.60;99.90;;;;;;4991593;28;20228;-88
2022/03/27 00:10:04;;;;;;;0.30;0.30;;;5.70;99.90;;;;;;4991499;28;20506;-88
2022/03/27 00:12:30;;;;;;;0.30;0.30;;;5.50;99.90;;;;;;4992575;28;20431;-88
2022/03/27 00:14:55;;;;;;;0.30;0.30;;;5.20;99.90;;;;;;4987353;28;20453;-87
2022/03/27 00:17:21;;;;;;;0.30;0.30;;;5.20;99.90;;;;;;4988526;28;20647;-88
2022/03/27 00:19:46;;;;;;;0.40;0.40;;;5.30;99.90;;;;;;4991062;28;20187;-87
2022/03/27 00:22:12;;;;;;;0.30;0.30;;;5.20;99.90;;;;;;4992038;28;20560;-88
2022/03/27 00:24:37;;;;;;;0.30;0.30;;;5.20;99.90;;;;;;4991455;28;20181;-88
2022/03/27 00:27:03;;;;;;;0.30;0.30;;;5.20;99.90;;;;;;4992038;28;20217;-88
2022/03/27 00:29:29;;;;;;;0.30;0.30;;;5.10;99.90;;;;;;4992103;28;20588;-88
2022/03/27 00:31:54;;;;;;;0.30;0.30;;;5.10;99.90;;;;;;5007279;28;20475;-88
2022/03/27 00:34:21;;;;;;;0.40;0.40;;;5.10;99.90;;;;;;4991787;28;20177;-88
2022/03/27 00:36:48;;;;;;;0.30;0.30;;;5.30;99.90;;;;;;4992166;28;20959;-88
2022/03/27 00:39:14;;;;;;;0.40;0.40;;;5.30;99.90;;;;;;4988320;28;20527;-88
2022/03/27 00:41:39;;;;;;;0.40;0.40;;;5.20;99.90;;;;;;4992181;28;20849;-88
2022/03/27 00:44:05;;;;;;;0.30;0.30;;;5.30;99.90;;;;;;4991496;28;20196;-88
2022/03/27 00:46:31;;;;;;;0.33;0.33;;;5.40;99.90;;;;;;4989875;28;20633;-88
2022/03/27 00:48:57;;;;;;;0.40;0.40;;;5.30;99.90;;;;;;4991399;28;20513;-88
2022/03/27 00:51:23;;;;;;;0.30;0.30;;;5.30;99.90;;;;;;4991521;28;20189;-87
2022/03/27 00:53:49;;;;;;;0.40;0.40;;;5.10;99.90;;;;;;4991546;28;20195;-88
2022/03/27 00:56:14;;;;;;;0.30;0.30;;;5.00;99.90;;;;;;4991749;28;20493;-88
2022/03/27 00:58:40;;;;;;;0.40;0.40;;;4.90;99.90;;;;;;4990314;28;20448;-88
2022/03/27 01:01:24;;;;;;;0.30;0.30;;;4.80;99.90;;;;;;4989843;28;20211;-88
2022/03/27 01:03:53;;;;;;;0.30;0.30;;;4.90;99.90;;;;;;4989214;28;20185;-88
2022/03/27 01:06:29;;;;;;;0.50;0.50;;;5.00;99.90;;;;;;4990193;28;20488;-88
2022/03/27 01:11:39;;;;;;;0.47;0.47;;;4.70;99.90;;;;;;4988948;28;20439;-87
2022/03/27 01:14:05;;;;;;;0.50;0.50;;;4.70;99.90;;;;;;4990856;28;20444;-87
2022/03/27 01:16:39;;;;;;;0.30;0.30;;;4.80;99.90;;;;;;4980181;28;20190;-88
2022/03/27 01:19:06;;;;;;;0.60;0.60;;;4.70;99.90;;;;;;4987902;28;20188;-88
2022/03/27 01:21:38;;;;;;;0.40;0.40;;;4.60;99.90;;;;;;5012386;28;20428;-88
2022/03/27 01:24:04;;;;;;;0.50;0.50;;;4.40;99.90;;;;;;4995382;28;20943;-88
2022/03/27 01:26:30;;;;;;;0.40;0.40;;;4.60;99.90;;;;;;4991554;28;20828;-91
2022/03/27 01:28:56;;;;;;;0.40;0.40;;;4.50;99.90;;;;;;4990923;28;20459;-91
2022/03/27 01:31:23;;;;;;;0.40;0.40;;;4.60;99.90;;;;;;4991215;28;20744;-91
2022/03/27 01:33:48;;;;;;;0.40;0.40;;;4.70;99.90;;;;;;4991037;28;20185;-88
2022/03/27 01:36:25;;;;;;;0.40;0.40;;;4.80;99.90;;;;;;4990652;28;20606;-88
2022/03/27 01:38:51;;;;;;;0.40;0.40;;;4.80;99.90;;;;;;4991394;28;20272;-88
2022/03/27 01:41:17;;;;;;;0.30;0.30;;;4.80;99.90;;;;;;4991918;28;20796;-88
2022/03/27 01:43:43;;;;;;;0.40;0.40;;;4.80;99.90;;;;;;4990537;28;20429;-88
2022/03/27 01:46:08;;;;;;;0.40;0.40;;;4.80;99.90;;;;;;4990801;28;20223;-87
2022/03/27 01:48:34;;;;;;;0.40;0.40;;;4.80;99.90;;;;;;4991086;28;20220;-91
2022/03/27 01:51:00;;;;;;;0.40;0.40;;;4.50;99.90;;;;;;4990812;28;20177;-91
2022/03/27 01:53:26;;;;;;;0.30;0.30;;;4.40;99.90;;;;;;4990611;28;20649;-91
2022/03/27 01:55:52;;;;;;;0.40;0.40;;;4.50;99.90;;;;;;4990780;28;20440;-91
2022/03/27 01:58:18;;;;;;;0.40;0.40;;;4.40;99.90;;;;;;4990394;28;20211;-90
2022/03/27 02:00:43;;;;;;;0.40;0.40;;;4.30;99.90;;;;;;4972789;28;20184;-91
2022/03/27 02:03:10;;;;;;;0.40;0.40;;;4.20;99.90;;;;;;4991128;28;20192;-91
2022/03/27 02:05:36;;;;;;;0.40;0.40;;;4.10;99.90;;;;;;4990485;28;20224;-91
2022/03/27 02:08:02;;;;;;;0.40;0.40;;;4.10;99.90;;;;;;4990121;28;20486;-90
2022/03/27 02:10:27;;;;;;;0.40;0.40;;;4.10;99.90;;;;;;4990606;28;20189;-90
2022/03/27 02:12:53;;;;;;;0.40;0.40;;;4.00;99.90;;;;;;4991144;28;20813;-91
2022/03/27 02:15:19;;;;;;;0.40;0.40;;;4.00;99.90;;;;;;4990796;28;20173;-90
2022/03/27 02:17:45;;;;;;;0.40;0.40;;;4.20;99.90;;;;;;4990883;28;20433;-88
2022/03/27 02:20:12;;;;;;;0.40;0.40;;;4.30;99.90;;;;;;4991400;28;20173;-91
2022/03/27 02:22:38;;;;;;;0.40;0.40;;;4.20;99.90;;;;;;4991144;28;20235;-91
2022/03/27 02:25:04;;;;;;;0.40;0.40;;;4.30;99.90;;;;;;4990148;28;20432;-90
2022/03/27 02:27:30;;;;;;;0.50;0.50;;;4.20;99.90;;;;;;4990632;28;20209;-88
2022/03/27 02:29:55;;;;;;;0.30;0.30;;;4.20;99.90;;;;;;4989601;28;20804;-91
2022/03/27 02:32:21;;;;;;;0.40;0.40;;;4.20;99.90;;;;;;4990883;28;20610;-91
2022/03/27 02:34:47;;;;;;;0.40;0.40;;;4.10;99.90;;;;;;4990703;28;20185;-91
2022/03/27 02:37:13;;;;;;;0.40;0.40;;;4.10;99.90;;;;;;4990447;28;20185;-91
2022/03/27 02:39:39;;;;;;;0.40;0.40;;;4.00;99.90;;;;;;4990777;28;20212;-90
2022/03/27 02:42:05;;;;;;;0.40;0.40;;;4.10;99.90;;;;;;4989776;28;20448;-91
2022/03/27 02:44:31;;;;;;;0.40;0.40;;;3.90;99.90;;;;;;4989614;28;20853;-91
2022/03/27 02:46:57;;;;;;;0.30;0.30;;;3.80;99.90;;;;;;4989655;28;20531;-91
2022/03/27 02:49:22;;;;;;;0.40;0.40;;;3.60;99.90;;;;;;4989381;28;20582;-91
2022/03/27 02:51:48;;;;;;;0.40;0.40;;;3.70;99.90;;;;;;4989844;28;20221;-91
2022/03/27 02:54:13;;;;;;;0.40;0.40;;;3.70;99.90;;;;;;4989477;28;20555;-90
2022/03/27 02:56:39;;;;;;;0.50;0.50;;;3.80;99.90;;;;;;4990581;28;20181;-90
2022/03/27 02:59:05;;;;;;;0.40;0.40;;;3.70;99.90;;;;;;4988593;28;20196;-90
2022/03/27 03:01:32;;;;;;;0.40;0.40;;;3.50;99.90;;;;;;4991570;28;20533;-90
2022/03/27 03:03:57;;;;;;;0.50;0.50;;;3.50;99.90;;;;;;4990249;28;20256;-90
2022/03/27 03:06:26;;;;;;;0.40;0.40;;;3.50;99.90;;;;;;4987377;28;20494;-91
2022/03/27 03:08:53;;;;;;;0.40;0.40;;;3.60;99.90;;;;;;4990179;28;20251;-90
2022/03/27 03:11:20;;;;;;;0.40;0.40;;;3.60;99.90;;;;;;4976450;28;20481;-90
2022/03/27 03:13:47;;;;;;;0.40;0.40;;;3.40;99.90;;;;;;4984452;28;20947;-91
2022/03/27 03:16:14;;;;;;;0.50;0.50;;;3.40;99.90;;;;;;4988654;28;20455;-90
2022/03/27 03:18:42;;;;;;;0.50;0.50;;;3.60;99.90;;;;;;4989834;28;20440;-91
2022/03/27 03:21:07;;;;;;;0.40;0.40;;;3.60;99.90;;;;;;4989916;28;20455;-90
2022/03/27 03:23:33;;;;;;;0.30;0.30;;;3.60;99.90;;;;;;4990095;28;20944;-90
2022/03/27 03:25:59;;;;;;;0.40;0.40;;;3.50;99.90;;;;;;4989960;28;20192;-90
2022/03/27 03:28:24;;;;;;;0.40;0.40;;;3.70;99.90;;;;;;4990482;28;20185;-90
2022/03/27 03:30:50;;;;;;;0.40;0.40;;;3.70;99.90;;;;;;4984556;28;20477;-90
2022/03/27 03:33:15;;;;;;;0.37;0.37;;;3.60;99.90;;;;;;4975715;28;20524;-91
2022/03/27 03:35:42;;;;;;;0.50;0.50;;;3.70;99.90;;;;;;4989785;28;20587;-91
2022/03/27 03:38:07;;;;;;;0.50;0.50;;;3.70;99.90;;;;;;4989035;28;20200;-90
2022/03/27 03:40:35;;;;;;;0.50;0.50;;;3.60;99.90;;;;;;4989155;28;20432;-89
2022/03/27 03:43:00;;;;;;;0.40;0.40;;;3.50;99.90;;;;;;4987302;28;20896;-90
2022/03/27 03:45:26;;;;;;;0.40;0.40;;;3.30;99.90;;;;;;4993195;28;20440;-90
2022/03/27 03:47:51;;;;;;;0.40;0.40;;;3.40;99.90;;;;;;4992012;28;20225;-90
2022/03/27 03:50:17;;;;;;;0.40;0.40;;;3.40;99.90;;;;;;4993756;28;20601;-90
2022/03/27 03:52:42;;;;;;;0.40;0.40;;;3.30;99.90;;;;;;4993030;28;20189;-90
2022/03/27 03:55:08;;;;;;;0.40;0.40;;;3.00;99.90;;;;;;4993197;28;20189;-91
2022/03/27 03:57:34;;;;;;;0.40;0.40;;;3.30;99.90;;;;;;4993010;28;20668;-90
2022/03/27 03:59:59;;;;;;;0.50;0.50;;;3.40;99.90;;;;;;4991091;28;20184;-91
2022/03/27 04:02:25;;;;;;;0.50;0.50;;;3.30;99.90;;;;;;4988558;28;20283;-91
2022/03/27 04:04:52;;;;;;;0.40;0.40;;;3.30;99.90;;;;;;4989283;28;20232;-90
2022/03/27 04:07:17;;;;;;;0.50;0.50;;;3.20;99.90;;;;;;5015188;28;20704;-91
2022/03/27 04:09:43;;;;;;;0.43;0.43;;;3.30;99.90;;;;;;4992788;28;20555;-90
2022/03/27 04:12:09;;;;;;;0.40;0.40;;;3.30;99.90;;;;;;4991654;28;20185;-90
2022/03/27 04:14:36;;;;;;;0.40;0.40;;;3.20;99.90;;;;;;4991813;28;20272;-90
2022/03/27 04:17:05;;;;;;;0.50;0.50;;;3.30;99.90;;;;;;4990433;28;20440;-91
2022/03/27 04:19:31;;;;;;;0.40;0.40;;;3.20;99.90;;;;;;4991207;28;20448;-90
2022/03/27 04:21:57;;;;;;;0.50;0.50;;;3.10;99.90;;;;;;4988683;28;21280;-90
2022/03/27 04:24:23;;;;;;;0.50;0.50;;;3.10;99.90;;;;;;4985112;28;20428;-91
2022/03/27 04:26:48;;;;;;;0.50;0.50;;;3.20;99.90;;;;;;4993737;28;20968;-91
2022/03/27 04:29:14;;;;;;;0.40;0.40;;;3.30;99.90;;;;;;4991534;28;20200;-91
2022/03/27 04:31:40;;;;;;;0.40;0.40;;;3.20;99.90;;;;;;4992220;28;20177;-91
2022/03/27 04:34:07;;;;;;;0.40;0.40;;;3.10;99.90;;;;;;4992184;28;20181;-90
2022/03/27 04:36:32;;;;;;;0.50;0.50;;;3.10;99.90;;;;;;4991214;28;20440;-90
2022/03/27 04:38:58;;;;;;;0.50;0.50;;;3.30;99.90;;;;;;4990920;28;20470;-90
2022/03/27 04:41:24;;;;;;;0.40;0.40;;;3.30;99.90;;;;;;4992394;28;20652;-90
2022/03/27 04:43:50;;;;;;;0.50;0.50;;;3.20;99.90;;;;;;4991441;28;20432;-91
2022/03/27 04:46:17;;;;;;;0.40;0.40;;;3.10;99.90;;;;;;4992136;28;20209;-92
2022/03/27 04:48:43;;;;;;;0.50;0.50;;;3.10;99.90;;;;;;4992754;28;20520;-92
2022/03/27 04:51:09;;;;;;;0.47;0.47;;;3.10;99.90;;;;;;4993390;28;20486;-91
2022/03/27 04:53:35;;;;;;;0.47;0.47;;;3.10;99.90;;;;;;4992199;28;20428;-91
2022/03/27 04:56:01;;;;;;;0.50;0.50;;;3.10;99.90;;;;;;4991532;28;20181;-91
2022/03/27 04:58:26;;;;;;;0.50;0.50;;;2.90;99.90;;;;;;4991667;28;20455;-91
2022/03/27 05:00:52;;;;;;;0.40;0.40;;;2.70;99.90;;;;;;4988800;28;20187;-91
2022/03/27 05:03:17;;;;;;;0.40;0.40;;;2.90;99.90;;;;;;4993116;28;20189;-90
2022/03/27 05:05:43;;;;;;;0.40;0.40;;;2.80;99.90;;;;;;4989730;28;20694;-91
2022/03/27 05:08:09;;;;;;;0.50;0.50;;;2.80;99.90;;;;;;4992028;28;20233;-90
2022/03/27 05:10:35;;;;;;;0.43;0.43;;;2.80;99.90;;;;;;5001142;28;20448;-91
2022/03/27 05:13:01;;;;;;;0.50;0.50;;;2.80;99.90;;;;;;4989574;28;20189;-90
2022/03/27 05:15:27;;;;;;;0.40;0.40;;;2.70;99.90;;;;;;4985167;28;20440;-90
2022/03/27 05:17:58;;;;;;;0.40;0.40;;;2.70;99.90;;;;;;4991898;28;20279;-91
2022/03/27 05:20:28;;;;;;;0.40;0.40;;;2.70;99.90;;;;;;4992834;28;20447;-92
2022/03/27 05:22:55;;;;;;;0.40;0.40;;;2.80;99.90;;;;;;5006106;28;20470;-92
2022/03/27 05:25:21;;;;;;;0.40;0.40;;;2.60;99.90;;;;;;4990257;28;20969;-90
2022/03/27 05:27:54;;;;;;;0.50;0.50;;;2.70;99.90;;;;;;4983555;28;20493;-91
2022/03/27 05:30:22;;;;;;;0.50;0.50;;;2.60;99.90;;;;;;4989520;28;20216;-91
2022/03/27 05:32:49;;;;;;;0.43;0.43;;;2.70;99.90;;;;;;5000385;28;20543;-89
2022/03/27 05:35:16;;;;;;;0.50;0.50;;;2.70;99.90;;;;;;5001003;28;20979;-91
2022/03/27 05:37:43;;;;;;;0.50;0.50;;;2.80;99.90;;;;;;4992001;28;20903;-91
2022/03/27 05:40:11;;;;;;;0.40;0.40;;;3.00;99.90;;;;;;4989664;28;20452;-91
2022/03/27 05:42:37;;;;;;;0.40;0.40;;;3.20;99.90;;;;;;4989201;28;20450;-91
2022/03/27 05:45:05;;;;;;;0.50;0.50;;;3.30;99.90;;;;;;4990977;28;20550;-92
2022/03/27 05:47:30;;;;;;;0.50;0.50;;;3.70;99.90;;;;;;4988308;28;20535;-91
2022/03/27 05:49:56;;;;;;;0.47;0.47;;;3.80;99.90;;;;;;4988828;28;20558;-91
2022/03/27 05:52:22;;;;;;;0.40;0.40;;;3.70;99.90;;;;;;4997528;28;20270;-90
2022/03/27 05:54:49;;;;;;;0.40;0.40;;;3.80;99.90;;;;;;4997261;28;20195;-91
2022/03/27 05:57:14;;;;;;;0.50;0.50;;;3.90;99.90;;;;;;5005438;28;20595;-91
2022/03/27 05:59:40;;;;;;;0.40;0.40;;;3.90;99.90;;;;;;4977420;28;20528;-91
2022/03/27 06:02:06;;;;;;;0.40;0.40;;;3.90;99.90;;;;;;4988508;28;20645;-91
2022/03/27 06:04:31;;;;;;;0.50;0.50;;;3.90;99.90;;;;;;4990847;28;20205;-92
2022/03/27 06:06:57;;;;;;;0.40;0.40;;;4.00;99.90;;;;;;4992052;28;20221;-91
2022/03/27 06:09:22;;;;;;;0.40;0.40;;;4.00;99.90;;;;;;4990261;28;20196;-92
2022/03/27 06:11:49;;;;;;;0.40;0.40;;;4.10;99.90;;;;;;4980237;28;20182;-91
2022/03/27 06:14:14;;;;;;;0.40;0.40;;;4.20;99.90;;;;;;4982693;28;20568;-92
2022/03/27 06:16:40;;;;;;;0.40;0.40;;;4.20;99.90;;;;;;4990814;28;20473;-92
2022/03/27 06:19:06;;;;;;;0.40;0.40;;;4.10;99.90;;;;;;4981764;28;20243;-91
2022/03/27 06:21:31;;;;;;;0.40;0.40;;;4.20;99.90;;;;;;4992091;28;20191;-91
2022/03/27 06:23:58;;;;;;;0.40;0.40;;;4.20;99.90;;;;;;4989722;28;20284;-90
2022/03/27 06:26:23;;;;;;;0.33;0.33;;;4.30;99.90;;;;;;4990100;28;20727;-89
2022/03/27 06:28:49;;;;;;;0.40;0.40;;;4.30;99.90;;;;;;4988478;28;20467;-90
2022/03/27 06:31:14;;;;;;;0.30;0.30;;;4.40;99.90;;;;;;4991143;28;20192;-89
2022/03/27 06:33:40;;;;;;;0.40;0.40;;;4.40;99.90;;;;;;4990639;28;20672;-87
2022/03/27 06:36:06;;;;;;;0.40;0.40;;;4.50;99.90;;;;;;4999656;28;20211;-89
2022/03/27 06:38:31;;;;;;;0.40;0.40;;;4.50;99.90;;;;;;4987748;28;20674;-89
2022/03/27 06:40:57;;;;;;;0.40;0.40;;;4.50;99.90;;;;;;4997123;28;20797;-88
2022/03/27 06:43:22;;;;;;;0.40;0.40;;;4.70;99.90;;;;;;4988472;28;20207;-87
2022/03/27 06:45:49;;;;;;;0.40;0.40;;;4.70;99.90;;;;;;4989252;28;20243;-88
2022/03/27 06:48:15;;;;;;;0.30;0.30;;;5.00;99.90;;;;;;4988890;28;20232;-88
2022/03/27 06:50:40;;;;;;;0.40;0.40;;;5.00;99.90;;;;;;4989559;28;20559;-90
2022/03/27 06:53:07;;;;;;;0.40;0.40;;;4.90;99.90;;;;;;4989503;28;20193;-88
2022/03/27 06:55:33;;;;;;;0.33;0.33;;;4.80;99.90;;;;;;4991458;28;20964;-88
2022/03/27 06:57:58;;;;;;;0.30;0.30;;;4.90;99.90;;;;;;4989251;28;20483;-89
2022/03/27 07:03:11;;;;;;;0.40;0.40;;;5.00;99.90;;;;;;4989246;28;20228;-91
2022/03/27 07:05:42;;;;;;;0.40;0.40;;;4.80;99.90;;;;;;4991619;28;21022;-91
2022/03/27 07:08:11;;;;;;;0.40;0.40;;;5.00;99.90;;;;;;5000748;28;20579;-88
2022/03/27 07:10:37;;;;;;;0.37;0.37;;;5.30;99.90;;;;;;4995885;28;20452;-89
2022/03/27 07:13:04;;;;;;;0.40;0.40;;;5.30;99.90;;;;;;4995099;28;20447;-89
2022/03/27 07:15:30;;;;;;;0.40;0.40;;;5.70;99.90;;;;;;4991427;28;20491;-89
2022/03/27 07:17:55;;;;;;;0.40;0.40;;;5.80;99.90;;;;;;4992331;28;20533;-89
2022/03/27 07:20:26;;;;;;;0.40;0.40;;;6.00;99.90;;;;;;4994999;28;21003;-90
2022/03/27 07:22:55;;;;;;;0.30;0.30;;;6.10;99.90;;;;;;4993386;28;20665;-90
2022/03/27 07:25:25;;;;;;;0.30;0.30;;;6.30;99.90;;;;;;5013149;28;21044;-89
2022/03/27 07:27:52;;;;;;;0.23;0.23;;;6.60;99.90;;;;;;5004114;28;20516;-90
2022/03/27 07:30:17;;;;;;;0.30;0.30;;;6.70;99.90;;;;;;4988440;28;20437;-90
2022/03/27 07:32:44;;;;;;;0.30;0.30;;;6.90;99.90;;;;;;4994309;28;20879;-89
2022/03/27 07:35:11;;;;;;;0.30;0.30;;;7.00;99.90;;;;;;4994168;28;20200;-89
2022/03/27 07:37:38;;;;;;;0.30;0.30;;;7.00;99.90;;;;;;4993177;28;20440;-89
2022/03/27 07:40:08;;;;;;;0.30;0.30;;;7.30;99.90;;;;;;4987463;28;20441;-89
2022/03/27 07:42:34;;;;;;;0.30;0.30;;;7.50;99.90;;;;;;4998278;28;20940;-87
2022/03/27 07:45:00;;;;;;;0.30;0.30;;;7.40;99.90;;;;;;4989711;28;20815;-88
2022/03/27 07:47:26;;;;;;;0.30;0.30;;;7.60;99.90;;;;;;5003820;28;20506;-87
2022/03/27 07:49:51;;;;;;;0.30;0.30;;;7.60;99.90;;;;;;4996336;28;20444;-88
2022/03/27 07:52:17;;;;;;;0.30;0.30;;;7.50;99.90;;;;;;5004842;28;20200;-87
2022/03/27 07:54:43;;;;;;;0.30;0.30;;;7.60;99.90;;;;;;4993293;28;20242;-88
2022/03/27 07:57:09;;;;;;;0.30;0.30;;;7.80;99.90;;;;;;4992067;28;20239;-90
2022/03/27 07:59:35;;;;;;;0.30;0.30;;;8.00;99.90;;;;;;4992625;28;20197;-89
2022/03/27 08:02:01;;;;;;;0.40;0.40;;;8.20;99.90;;;;;;4993303;28;20495;-90
2022/03/27 08:04:27;;;;;;;0.30;0.30;;;8.10;99.90;;;;;;4993616;28;20189;-89
2022/03/27 08:06:52;;;;;;;0.30;0.30;;;8.40;99.90;;;;;;4993281;28;20490;-90
2022/03/27 08:09:18;;;;;;;0.20;0.20;;;8.40;99.90;;;;;;4993192;28;20185;-89
2022/03/27 08:11:43;;;;;;;0.30;0.30;;;8.60;99.90;;;;;;4993720;28;20553;-91
2022/03/27 08:14:10;;;;;;;0.23;0.23;;;8.70;99.90;;;;;;4993582;28;20204;-89
2022/03/27 08:16:40;;;;;;;0.30;0.30;;;8.90;99.90;;;;;;4993807;28;20287;-90
2022/03/27 08:19:05;;;;;;;0.20;0.20;;;9.20;99.90;;;;;;4993203;28;20552;-90
2022/03/27 08:21:31;;;;;;;0.20;0.20;;;9.30;99.90;;;;;;4993240;28;20536;-89
2022/03/27 08:23:56;;;;;;;0.20;0.20;;;9.50;99.90;;;;;;4992101;28;20766;-89
2022/03/27 08:29:07;;;;;;;0.30;0.30;;;9.40;99.90;;;;;;4993313;28;20215;-90
2022/03/27 08:31:33;;;;;;;0.20;0.20;;;9.60;99.90;;;;;;4993750;28;20845;-89
2022/03/27 08:33:59;;;;;;;0.30;0.30;;;9.80;99.90;;;;;;4993069;28;20186;-90
2022/03/27 08:36:27;;;;;;;0.23;0.23;;;9.90;99.90;;;;;;4994487;28;20181;-89
2022/03/27 08:38:53;;;;;;;0.30;0.30;;;9.70;99.90;;;;;;4994257;28;20474;-89
2022/03/27 08:41:21;;;;;;;0.20;0.20;;;10.00;99.90;;;;;;4992859;28;20470;-91
2022/03/27 08:43:49;;;;;;;0.20;0.20;;;10.30;99.90;;;;;;4991973;28;20448;-89
2022/03/27 08:46:16;;;;;;;0.20;0.20;;;10.30;99.90;;;;;;4992496;28;20432;-89
2022/03/27 08:48:44;;;;;;;0.20;0.20;;;10.50;99.90;;;;;;4991557;28;20606;-89
2022/03/27 08:51:29;;;;;;;0.20;0.20;;;10.30;99.90;;;;;;4987367;28;20455;-89
2022/03/27 08:54:02;;;;;;;0.20;0.20;;;10.50;99.90;;;;;;4992940;28;20898;-89
2022/03/27 08:56:29;;;;;;;0.20;0.20;;;10.80;99.90;;;;;;4994211;28;20467;-88
2022/03/27 08:58:59;;;;;;;0.20;0.20;;;11.00;99.90;;;;;;4990150;28;20455;-88
2022/03/27 09:01:26;;;;;;;0.20;0.20;;;11.00;99.90;;;;;;4988838;28;20483;-87
2022/03/27 09:03:52;;;;;;;0.20;0.20;;;11.10;99.90;;;;;;5007172;28;20443;-89
2022/03/27 09:06:18;;;;;;;0.20;0.20;;;11.40;99.90;;;;;;4986199;28;21015;-89
2022/03/27 09:08:43;;;;;;;0.20;0.20;;;11.40;99.90;;;;;;4989492;28;20197;-89
2022/03/27 09:11:15;;;;;;;0.20;0.20;;;11.50;99.90;;;;;;4984783;28;20212;-88
2022/03/27 09:13:45;;;;;;;0.20;0.20;;;11.40;99.90;;;;;;4991617;28;20193;-89
2022/03/27 09:16:11;;;;;;;0.20;0.20;;;11.60;99.90;;;;;;4996214;28;20444;-89
2022/03/27 09:18:42;;;;;;;0.20;0.20;;;11.60;99.90;;;;;;5000583;28;20448;-90
2022/03/27 09:21:08;;;;;;;0.20;0.20;;;12.00;99.90;;;;;;4984657;28;20927;-88
2022/03/27 09:23:35;;;;;;;0.20;0.20;;;12.00;99.90;;;;;;4990687;28;20451;-88
2022/03/27 09:26:04;;;;;;;0.20;0.20;;;12.30;99.90;;;;;;4985405;28;20185;-88
2022/03/27 09:28:31;;;;;;;0.20;0.20;;;12.10;99.90;;;;;;4994836;28;20830;-88
2022/03/27 09:30:59;;;;;;;0.20;0.20;;;12.40;99.90;;;;;;5011443;28;20451;-89
2022/03/27 09:33:48;;;;;;;0.20;0.20;;;12.60;99.90;;;;;;4991334;28;20452;-92
2022/03/27 09:36:40;;;;;;;0.20;0.20;;;13.00;99.90;;;;;;4984529;28;20448;-92
2022/03/27 09:39:06;;;;;;;0.73;0.73;;;13.20;99.90;;;;;;4987294;28;20455;-88
2022/03/27 09:41:44;;;;;;;1.87;1.87;;;12.90;99.90;;;;;;4996910;28;20443;-88
2022/03/27 09:44:19;;;;;;;1.20;1.20;;;13.20;99.90;;;;;;4992943;28;20472;-89
2022/03/27 09:46:49;;;;;;;0.70;0.70;;;13.00;99.90;;;;;;4991311;28;20460;-91
2022/03/27 09:49:15;;;;;;;0.90;0.90;;;13.50;99.90;;;;;;5001595;28;20447;-91
2022/03/27 09:51:52;;;;;;;0.73;0.73;;;13.60;99.90;;;;;;4996714;28;20443;-89
2022/03/27 09:54:17;;;;;;;0.10;0.10;;;14.00;99.90;;;;;;5001047;28;20443;-90
2022/03/27 09:56:43;;;;;;;0.20;0.20;;;13.70;99.90;;;;;;4990359;28;20501;-89
2022/03/27 09:59:26;;;;;;;0.10;0.10;;;13.90;99.90;;;;;;5001109;28;20185;-92
2022/03/27 10:01:51;;;;;;;0.67;0.67;;;14.00;99.90;;;;;;4986154;28;20224;-88
2022/03/27 10:04:17;;;;;;;1.90;1.90;;;14.20;99.90;;;;;;4991248;28;20432;-91
2022/03/27 10:06:43;;;;;;;2.13;2.13;;;14.30;99.90;;;;;;4989645;28;20239;-92
2022/03/27 10:09:11;;;;;;;1.33;1.33;;;14.70;99.90;;;;;;4997585;28;20331;-90
2022/03/27 10:11:39;;;;;;;0.70;0.70;;;14.50;99.90;;;;;;4992270;28;20443;-91
2022/03/27 10:14:06;;;;;;;1.30;1.30;;;14.20;99.90;;;;;;4993864;28;20535;-91
2022/03/27 10:16:38;;;;;;;0.63;0.63;;;15.00;99.90;;;;;;4996783;28;20997;-91
2022/03/27 10:19:08;;;;;;;0.80;0.80;;;15.10;99.90;;;;;;5025613;28;20436;-92
2022/03/27 10:21:35;;;;;;;1.40;1.40;;;15.10;99.90;;;;;;5004712;28;20448;-92
2022/03/27 10:24:15;;;;;;;1.50;1.50;;;15.40;99.90;;;;;;4990519;28;20535;-91
2022/03/27 10:26:43;;;;;;;0.10;0.10;;;15.70;99.90;;;;;;4997617;28;20827;-91
2022/03/27 10:29:10;;;;;;;0.10;0.10;;;15.40;99.90;;;;;;4988943;28;20448;-91
2022/03/27 10:31:36;;;;;;;2.53;2.53;;;16.30;99.90;;;;;;4976046;28;20451;-92
2022/03/27 10:34:04;;;;;;;2.23;2.23;;;16.50;99.90;;;;;;4990087;28;20636;-91
2022/03/27 10:36:53;;;;;;;0.97;0.97;;;16.80;99.90;;;;;;4990584;28;20177;-92
2022/03/27 10:39:28;;;;;;;0.10;0.10;;;16.60;99.90;;;;;;4995839;28;20447;-92
2022/03/27 10:42:15;;;;;;;0.73;0.73;;;16.80;99.90;;;;;;4995648;28;20439;-89
2022/03/27 10:44:51;;;;;;;1.20;1.20;;;16.00;99.90;;;;;;5004941;28;20455;-93
2022/03/27 10:47:22;;;;;;;0.77;0.77;;;16.50;99.90;;;;;;4992367;28;20483;-91
2022/03/27 10:50:06;;;;;;;0.10;0.10;;;16.90;99.90;;;;;;4989738;28;20479;-91
2022/03/27 10:52:46;;;;;;;0.43;0.43;;;16.50;99.90;;;;;;5018261;28;20865;-92
2022/03/27 10:55:15;;;;;;;0.10;0.10;;;17.10;99.90;;;;;;4994382;28;20711;-92
2022/03/27 10:57:46;;;;;;;0.10;0.10;;;16.80;99.90;;;;;;4994626;28;20452;-92
2022/03/27 11:00:14;;;;;;;0.10;0.10;;;16.40;99.90;;;;;;4996147;28;20428;-92
2022/03/27 11:02:45;;;;;;;0.10;0.10;;;16.50;99.90;;;;;;4994689;28;20448;-93
2022/03/27 11:05:30;;;;;;;0.10;0.10;;;17.10;99.90;;;;;;4996299;28;20468;-92
2022/03/27 11:08:17;;;;;;;0.10;0.10;;;17.60;99.90;;;;;;4999872;28;20481;-94
2022/03/27 11:10:55;;;;;;;0.20;0.20;;;18.00;99.90;;;;;;4995911;28;20459;-92
2022/03/27 11:13:27;;;;;;;0.10;0.10;;;18.10;99.90;;;;;;4993324;28;20459;-89
2022/03/27 11:16:12;;;;;;;0.10;0.10;;;17.80;99.90;;;;;;4982547;28;20997;-91
2022/03/27 11:18:41;;;;;;;0.20;0.20;;;18.00;99.90;;;;;;4994802;28;20447;-90
2022/03/27 11:21:09;;;;;;;0.83;0.83;;;18.20;99.90;;;;;;4990846;28;21011;-86
2022/03/27 11:23:37;;;;;;;0.53;0.53;;;18.80;99.90;;;;;;4986858;28;20439;-85
2022/03/27 11:26:05;;;;;;;0.40;0.40;;;18.90;99.90;;;;;;5002000;28;20549;-84
2022/03/27 11:28:51;;;;;;;0.20;0.20;;;18.30;99.90;;;;;;4993881;28;20491;-83
2022/03/27 11:31:18;;;;;;;0.20;0.13;;;18.70;99.90;;;;;;4994397;28;20456;-85
2022/03/27 11:34:04;;;;;;;0.10;0.10;;;19.10;99.90;;;;;;4989581;28;20458;-86
2022/03/27 11:36:30;;;;;;;0.10;0.00;;;19.40;99.90;;;;;;4986494;28;20523;-92
2022/03/27 11:39:02;;;;;;;0.20;0.10;;;19.90;99.90;;;;;;4996206;28;20428;-95
2022/03/27 11:41:45;;;;;;;0.10;0.00;;;18.90;99.90;;;;;;4991568;28;20947;-92
2022/03/27 11:47:40;;;;;;;0.10;0.00;;;19.30;99.90;;;;;;4995220;28;20521;-93
2022/03/27 11:50:06;;;;;;;0.10;0.10;;;20.30;98.90;;;;;;4992218;28;21171;-93
2022/03/27 11:52:32;;;;;;;0.10;0.00;;;19.70;99.60;;;;;;5001864;28;21084;-89
2022/03/27 11:55:09;;;;;;;0.10;0.00;;;19.90;98.90;;;;;;4988986;28;20502;-88
2022/03/27 11:57:41;;;;;;;0.10;0.00;;;20.10;98.10;;;;;;4988596;28;20196;-90
2022/03/27 12:00:09;;;;;;;0.10;0.00;;;20.50;96.80;;;;;;4988188;28;21073;-92
2022/03/27 12:02:43;;;;;;;0.10;0.00;;;20.90;96.50;;;;;;4994765;28;20861;-95
2022/03/27 12:05:10;;;;;;;0.10;0.10;;;20.70;94.60;;;;;;4998354;28;20483;-95
2022/03/27 12:07:55;;;;;;;0.10;0.10;;;20.20;94.80;;;;;;4993014;28;20975;-95
2022/03/27 12:10:21;;;;;;;0.10;0.00;;;20.40;95.80;;;;;;4993652;28;20443;-95
2022/03/27 12:13:02;;;;;;;0.10;0.10;;;20.60;94.90;;;;;;4998460;28;20436;-95
2022/03/27 12:15:52;;;;;;;0.10;0.00;;;21.10;94.00;;;;;;5009608;28;20826;-94
2022/03/27 12:18:29;;;;;;;0.10;0.00;;;20.00;93.10;;;;;;4993312;28;20527;-93
2022/03/27 12:20:55;;;;;;;0.10;0.00;;;20.10;93.40;;;;;;4984197;28;20427;-95
2022/03/27 12:23:29;;;;;;;0.10;0.00;;;21.00;93.80;;;;;;4992215;28;20451;-93
2022/03/27 12:29:39;;;;;;;0.10;0.00;;;21.30;91.40;;;;;;4997379;28;20452;-93
2022/03/27 12:29:40;;;;;;;0.10;0.00;;;20.60;91.70;;;;;;4973673;28;20463;-94
2022/03/27 12:32:07;;;;;;;0.10;0.00;;;21.00;90.40;;;;;;5006146;28;20496;-92
2022/03/27 12:34:38;;;;;;;0.30;0.30;;;22.30;89.60;;;;;;4989722;28;20483;-93
2022/03/27 12:37:12;;;;;;;0.10;0.00;;;22.60;86.00;;;;;;5004673;28;20457;-96
2022/03/27 12:40:05;;;;;;;0.10;0.10;;;22.50;85.80;;;;;;5000746;28;20976;-92
2022/03/27 12:42:32;;;;;;;0.10;0.00;;;23.10;86.10;;;;;;4983229;28;20448;-92
2022/03/27 12:45:11;;;;;;;0.10;0.00;;;22.20;83.70;;;;;;5003234;28;21037;-89
2022/03/27 12:47:44;;;;;;;0.10;0.00;;;22.20;87.20;;;;;;4994968;28;20486;-91
2022/03/27 12:50:32;;;;;;;0.10;0.00;;;22.60;81.90;;;;;;4993031;28;20438;-91
2022/03/27 12:52:57;;;;;;;0.10;0.00;;;22.20;85.20;;;;;;4995819;28;20444;-90
2022/03/27 12:55:26;;;;;;;0.10;0.00;;;22.00;83.90;;;;;;4984313;28;20612;-89
2022/03/27 12:57:56;;;;;;;0.10;0.00;;;21.50;86.10;;;;;;4993663;28;20192;-86
2022/03/27 13:00:24;;;;;;;0.10;0.00;;;21.30;86.10;;;;;;4994635;28;20959;-89
2022/03/27 13:03:07;;;;;;;0.10;0.00;;;21.90;82.80;;;;;;4988017;28;20497;-89
2022/03/27 13:05:33;;;;;;;0.10;0.00;;;23.00;81.60;;;;;;4986020;28;20475;-89
2022/03/27 13:07:58;;;;;;;0.10;0.00;;;23.10;81.00;;;;;;4989442;28;20546;-88
2022/03/27 13:10:26;;;;;;;0.10;0.00;;;22.80;78.90;;;;;;4994198;28;20193;-88